sensor_id;sensor_type;location;lat;lon;timestamp;P1;durP1;ratioP1;P2;durP2;ratioP2
20036;SDS011;10179;42.640;23.312;2023-03-03T00:00:33;4.72;;;3.30;;
20036;SDS011;10179;42.640;23.312;2023-03-03T00:02:59;5.00;;;3.30;;
20036;SDS011;10179;42.640;23.312;2023-03-03T00:05:29;4.90;;;3.10;;
20036;SDS011;10179;42.640;23.312;2023-03-03T00:07:57;7.00;;;3.45;;
20036;SDS011;10179;42.640;23.312;2023-03-03T00:10:23;4.72;;;3.33;;
20036;SDS011;10179;42.640;23.312;2023-03-03T00:12:49;4.80;;;3.03;;
20036;SDS011;10179;42.640;23.312;2023-03-03T00:15:16;6.35;;;3.20;;
20036;SDS011;10179;42.640;23.312;2023-03-03T00:17:44;6.30;;;3.53;;
20036;SDS011;10179;42.640;23.312;2023-03-03T00:22:53;6.45;;;3.38;;
20036;SDS011;10179;42.640;23.312;2023-03-03T00:25:29;5.43;;;3.53;;
20036;SDS011;10179;42.640;23.312;2023-03-03T00:28:15;5.18;;;3.40;;
20036;SDS011;10179;42.640;23.312;2023-03-03T00:30:44;4.97;;;3.67;;
20036;SDS011;10179;42.640;23.312;2023-03-03T00:33:18;8.68;;;4.07;;
20036;SDS011;10179;42.640;23.312;2023-03-03T00:35:44;6.47;;;3.70;;
20036;SDS011;10179;42.640;23.312;2023-03-03T00:38:13;6.25;;;3.40;;
20036;SDS011;10179;42.640;23.312;2023-03-03T00:40:42;8.57;;;4.30;;
20036;SDS011;10179;42.640;23.312;2023-03-03T00:43:12;4.47;;;3.22;;
20036;SDS011;10179;42.640;23.312;2023-03-03T00:45:48;5.57;;;3.45;;
20036;SDS011;10179;42.640;23.312;2023-03-03T00:48:27;7.07;;;4.15;;
20036;SDS011;10179;42.640;23.312;2023-03-03T00:50:58;5.68;;;3.70;;
20036;SDS011;10179;42.640;23.312;2023-03-03T00:53:26;5.65;;;3.65;;
20036;SDS011;10179;42.640;23.312;2023-03-03T00:55:53;5.93;;;3.97;;
20036;SDS011;10179;42.640;23.312;2023-03-03T00:58:19;6.00;;;3.97;;
20036;SDS011;10179;42.640;23.312;2023-03-03T01:00:47;6.03;;;4.03;;
20036;SDS011;10179;42.640;23.312;2023-03-03T01:03:14;5.70;;;3.90;;
20036;SDS011;10179;42.640;23.312;2023-03-03T01:05:42;6.70;;;4.07;;
20036;SDS011;10179;42.640;23.312;2023-03-03T01:08:08;5.43;;;3.75;;
20036;SDS011;10179;42.640;23.312;2023-03-03T01:10:35;7.32;;;4.25;;
20036;SDS011;10179;42.640;23.312;2023-03-03T01:13:05;6.18;;;4.20;;
20036;SDS011;10179;42.640;23.312;2023-03-03T01:15:31;6.07;;;3.72;;
20036;SDS011;10179;42.640;23.312;2023-03-03T01:17:57;6.95;;;3.67;;
20036;SDS011;10179;42.640;23.312;2023-03-03T01:20:22;5.90;;;3.75;;
20036;SDS011;10179;42.640;23.312;2023-03-03T01:22:48;9.40;;;3.88;;
20036;SDS011;10179;42.640;23.312;2023-03-03T01:25:14;5.45;;;3.63;;
20036;SDS011;10179;42.640;23.312;2023-03-03T01:27:39;5.80;;;3.70;;
20036;SDS011;10179;42.640;23.312;2023-03-03T01:30:05;8.02;;;4.07;;
20036;SDS011;10179;42.640;23.312;2023-03-03T01:32:32;5.32;;;3.67;;
20036;SDS011;10179;42.640;23.312;2023-03-03T01:34:58;6.32;;;4.07;;
20036;SDS011;10179;42.640;23.312;2023-03-03T01:37:23;6.82;;;3.55;;
20036;SDS011;10179;42.640;23.312;2023-03-03T01:39:49;6.45;;;3.83;;
20036;SDS011;10179;42.640;23.312;2023-03-03T01:42:16;5.40;;;3.70;;
20036;SDS011;10179;42.640;23.312;2023-03-03T01:44:42;4.60;;;3.33;;
20036;SDS011;10179;42.640;23.312;2023-03-03T01:47:21;9.73;;;4.03;;
20036;SDS011;10179;42.640;23.312;2023-03-03T01:49:59;6.63;;;3.88;;
20036;SDS011;10179;42.640;23.312;2023-03-03T01:52:38;6.40;;;3.55;;
20036;SDS011;10179;42.640;23.312;2023-03-03T01:55:08;7.13;;;3.60;;
20036;SDS011;10179;42.640;23.312;2023-03-03T01:57:42;6.00;;;3.85;;
20036;SDS011;10179;42.640;23.312;2023-03-03T02:00:12;5.03;;;3.60;;
20036;SDS011;10179;42.640;23.312;2023-03-03T02:02:38;6.53;;;3.95;;
20036;SDS011;10179;42.640;23.312;2023-03-03T02:05:05;7.40;;;3.70;;
20036;SDS011;10179;42.640;23.312;2023-03-03T02:07:31;6.05;;;3.60;;
20036;SDS011;10179;42.640;23.312;2023-03-03T02:09:58;8.00;;;3.33;;
20036;SDS011;10179;42.640;23.312;2023-03-03T02:12:35;5.88;;;3.47;;
20036;SDS011;10179;42.640;23.312;2023-03-03T02:17:53;6.00;;;3.72;;
20036;SDS011;10179;42.640;23.312;2023-03-03T02:20:33;6.85;;;4.00;;
20036;SDS011;10179;42.640;23.312;2023-03-03T02:23:08;6.60;;;3.70;;
20036;SDS011;10179;42.640;23.312;2023-03-03T02:28:24;6.40;;;3.63;;
20036;SDS011;10179;42.640;23.312;2023-03-03T02:30:56;5.60;;;3.93;;
20036;SDS011;10179;42.640;23.312;2023-03-03T02:33:23;6.35;;;3.95;;
20036;SDS011;10179;42.640;23.312;2023-03-03T02:35:49;6.25;;;3.53;;
20036;SDS011;10179;42.640;23.312;2023-03-03T02:38:28;5.97;;;3.67;;
20036;SDS011;10179;42.640;23.312;2023-03-03T02:41:03;6.47;;;3.70;;
20036;SDS011;10179;42.640;23.312;2023-03-03T02:46:24;7.03;;;3.50;;
20036;SDS011;10179;42.640;23.312;2023-03-03T02:48:50;7.30;;;3.58;;
20036;SDS011;10179;42.640;23.312;2023-03-03T02:51:16;5.93;;;3.72;;
20036;SDS011;10179;42.640;23.312;2023-03-03T02:53:41;7.13;;;3.75;;
20036;SDS011;10179;42.640;23.312;2023-03-03T02:56:07;6.85;;;4.32;;
20036;SDS011;10179;42.640;23.312;2023-03-03T02:58:33;6.47;;;4.10;;
20036;SDS011;10179;42.640;23.312;2023-03-03T03:01:00;5.80;;;4.00;;
20036;SDS011;10179;42.640;23.312;2023-03-03T03:03:25;7.90;;;3.75;;
20036;SDS011;10179;42.640;23.312;2023-03-03T03:05:51;6.43;;;4.40;;
20036;SDS011;10179;42.640;23.312;2023-03-03T03:08:16;6.95;;;4.22;;
20036;SDS011;10179;42.640;23.312;2023-03-03T03:10:42;6.57;;;4.20;;
20036;SDS011;10179;42.640;23.312;2023-03-03T03:13:07;5.25;;;3.88;;
20036;SDS011;10179;42.640;23.312;2023-03-03T03:15:34;7.65;;;4.90;;
20036;SDS011;10179;42.640;23.312;2023-03-03T03:18:00;8.35;;;4.93;;
20036;SDS011;10179;42.640;23.312;2023-03-03T03:20:25;8.52;;;4.47;;
20036;SDS011;10179;42.640;23.312;2023-03-03T03:22:51;8.82;;;4.60;;
20036;SDS011;10179;42.640;23.312;2023-03-03T03:25:16;7.20;;;4.65;;
20036;SDS011;10179;42.640;23.312;2023-03-03T03:27:41;7.35;;;4.43;;
20036;SDS011;10179;42.640;23.312;2023-03-03T03:30:07;8.00;;;4.88;;
20036;SDS011;10179;42.640;23.312;2023-03-03T03:32:33;9.68;;;5.45;;
20036;SDS011;10179;42.640;23.312;2023-03-03T03:34:58;6.82;;;4.70;;
20036;SDS011;10179;42.640;23.312;2023-03-03T03:37:24;9.85;;;5.43;;
20036;SDS011;10179;42.640;23.312;2023-03-03T03:39:49;9.77;;;5.30;;
20036;SDS011;10179;42.640;23.312;2023-03-03T03:42:15;8.70;;;5.28;;
20036;SDS011;10179;42.640;23.312;2023-03-03T03:44:40;8.07;;;5.38;;
20036;SDS011;10179;42.640;23.312;2023-03-03T03:47:06;10.98;;;6.10;;
20036;SDS011;10179;42.640;23.312;2023-03-03T03:49:31;10.52;;;5.63;;
20036;SDS011;10179;42.640;23.312;2023-03-03T03:51:57;9.38;;;5.75;;
20036;SDS011;10179;42.640;23.312;2023-03-03T03:54:22;11.02;;;5.88;;
20036;SDS011;10179;42.640;23.312;2023-03-03T03:56:47;10.75;;;5.65;;
20036;SDS011;10179;42.640;23.312;2023-03-03T03:59:13;9.13;;;5.00;;
20036;SDS011;10179;42.640;23.312;2023-03-03T04:01:38;10.00;;;5.32;;
20036;SDS011;10179;42.640;23.312;2023-03-03T04:04:04;10.93;;;6.20;;
20036;SDS011;10179;42.640;23.312;2023-03-03T04:06:30;10.25;;;5.28;;
20036;SDS011;10179;42.640;23.312;2023-03-03T04:08:56;9.30;;;5.68;;
20036;SDS011;10179;42.640;23.312;2023-03-03T04:11:21;10.20;;;5.80;;
20036;SDS011;10179;42.640;23.312;2023-03-03T04:13:47;11.80;;;6.22;;
20036;SDS011;10179;42.640;23.312;2023-03-03T04:16:12;11.43;;;6.57;;
20036;SDS011;10179;42.640;23.312;2023-03-03T04:18:38;11.13;;;6.63;;
20036;SDS011;10179;42.640;23.312;2023-03-03T04:21:03;13.32;;;6.57;;
20036;SDS011;10179;42.640;23.312;2023-03-03T04:23:29;10.73;;;5.75;;
20036;SDS011;10179;42.640;23.312;2023-03-03T04:25:54;10.23;;;6.13;;
20036;SDS011;10179;42.640;23.312;2023-03-03T04:28:19;11.00;;;5.95;;
20036;SDS011;10179;42.640;23.312;2023-03-03T04:30:46;12.30;;;6.28;;
20036;SDS011;10179;42.640;23.312;2023-03-03T04:33:12;12.80;;;6.80;;
20036;SDS011;10179;42.640;23.312;2023-03-03T04:35:37;11.05;;;6.07;;
20036;SDS011;10179;42.640;23.312;2023-03-03T04:38:03;10.38;;;6.10;;
20036;SDS011;10179;42.640;23.312;2023-03-03T04:40:29;11.23;;;6.65;;
20036;SDS011;10179;42.640;23.312;2023-03-03T04:42:55;13.48;;;6.45;;
20036;SDS011;10179;42.640;23.312;2023-03-03T04:45:20;10.15;;;5.97;;
20036;SDS011;10179;42.640;23.312;2023-03-03T04:47:46;13.73;;;6.57;;
20036;SDS011;10179;42.640;23.312;2023-03-03T04:50:11;11.82;;;6.60;;
20036;SDS011;10179;42.640;23.312;2023-03-03T04:52:37;12.25;;;6.60;;
20036;SDS011;10179;42.640;23.312;2023-03-03T04:55:03;10.00;;;6.57;;
20036;SDS011;10179;42.640;23.312;2023-03-03T04:57:29;10.13;;;5.22;;
20036;SDS011;10179;42.640;23.312;2023-03-03T04:59:54;10.45;;;6.00;;
20036;SDS011;10179;42.640;23.312;2023-03-03T05:02:20;9.70;;;6.50;;
20036;SDS011;10179;42.640;23.312;2023-03-03T05:04:45;9.52;;;5.82;;
20036;SDS011;10179;42.640;23.312;2023-03-03T05:07:11;13.32;;;7.10;;
20036;SDS011;10179;42.640;23.312;2023-03-03T05:09:36;11.88;;;6.55;;
20036;SDS011;10179;42.640;23.312;2023-03-03T05:12:02;10.48;;;6.18;;
20036;SDS011;10179;42.640;23.312;2023-03-03T05:14:28;10.70;;;6.10;;
20036;SDS011;10179;42.640;23.312;2023-03-03T05:16:53;10.80;;;6.13;;
20036;SDS011;10179;42.640;23.312;2023-03-03T05:19:18;10.07;;;6.25;;
20036;SDS011;10179;42.640;23.312;2023-03-03T05:21:44;8.70;;;5.88;;
20036;SDS011;10179;42.640;23.312;2023-03-03T05:24:10;8.98;;;5.57;;
20036;SDS011;10179;42.640;23.312;2023-03-03T05:26:36;12.80;;;6.15;;
20036;SDS011;10179;42.640;23.312;2023-03-03T05:29:02;9.63;;;5.47;;
20036;SDS011;10179;42.640;23.312;2023-03-03T05:31:28;10.60;;;6.13;;
20036;SDS011;10179;42.640;23.312;2023-03-03T05:33:54;9.52;;;5.57;;
20036;SDS011;10179;42.640;23.312;2023-03-03T05:36:19;8.57;;;5.55;;
20036;SDS011;10179;42.640;23.312;2023-03-03T05:38:45;8.82;;;4.88;;
20036;SDS011;10179;42.640;23.312;2023-03-03T05:41:11;9.90;;;5.75;;
20036;SDS011;10179;42.640;23.312;2023-03-03T05:43:36;10.43;;;5.90;;
20036;SDS011;10179;42.640;23.312;2023-03-03T05:46:02;11.27;;;4.85;;
20036;SDS011;10179;42.640;23.312;2023-03-03T05:48:28;7.47;;;4.78;;
20036;SDS011;10179;42.640;23.312;2023-03-03T05:50:53;6.93;;;4.35;;
20036;SDS011;10179;42.640;23.312;2023-03-03T05:53:22;8.52;;;5.05;;
20036;SDS011;10179;42.640;23.312;2023-03-03T05:55:48;10.82;;;5.78;;
20036;SDS011;10179;42.640;23.312;2023-03-03T05:58:13;13.07;;;5.78;;
20036;SDS011;10179;42.640;23.312;2023-03-03T06:00:38;14.30;;;7.50;;
20036;SDS011;10179;42.640;23.312;2023-03-03T06:03:04;12.30;;;7.25;;
20036;SDS011;10179;42.640;23.312;2023-03-03T06:05:29;19.77;;;8.40;;
20036;SDS011;10179;42.640;23.312;2023-03-03T06:07:55;16.42;;;8.25;;
20036;SDS011;10179;42.640;23.312;2023-03-03T06:10:20;15.80;;;8.15;;
20036;SDS011;10179;42.640;23.312;2023-03-03T06:12:46;17.23;;;7.38;;
20036;SDS011;10179;42.640;23.312;2023-03-03T06:15:11;12.00;;;6.70;;
20036;SDS011;10179;42.640;23.312;2023-03-03T06:17:37;13.45;;;6.80;;
20036;SDS011;10179;42.640;23.312;2023-03-03T06:20:02;13.75;;;8.23;;
20036;SDS011;10179;42.640;23.312;2023-03-03T06:22:28;18.27;;;9.50;;
20036;SDS011;10179;42.640;23.312;2023-03-03T06:24:54;23.38;;;12.65;;
20036;SDS011;10179;42.640;23.312;2023-03-03T06:27:19;23.10;;;12.10;;
20036;SDS011;10179;42.640;23.312;2023-03-03T06:29:45;22.13;;;12.30;;
20036;SDS011;10179;42.640;23.312;2023-03-03T06:32:11;18.00;;;9.73;;
20036;SDS011;10179;42.640;23.312;2023-03-03T06:34:36;17.23;;;8.10;;
20036;SDS011;10179;42.640;23.312;2023-03-03T06:37:02;15.10;;;8.10;;
20036;SDS011;10179;42.640;23.312;2023-03-03T06:39:27;16.85;;;8.90;;
20036;SDS011;10179;42.640;23.312;2023-03-03T06:41:53;16.80;;;8.25;;
20036;SDS011;10179;42.640;23.312;2023-03-03T06:44:18;17.17;;;7.65;;
20036;SDS011;10179;42.640;23.312;2023-03-03T06:46:44;16.55;;;8.32;;
20036;SDS011;10179;42.640;23.312;2023-03-03T06:49:09;15.02;;;7.95;;
20036;SDS011;10179;42.640;23.312;2023-03-03T06:51:35;15.93;;;8.35;;
20036;SDS011;10179;42.640;23.312;2023-03-03T06:54:11;16.05;;;8.18;;
20036;SDS011;10179;42.640;23.312;2023-03-03T06:56:38;13.55;;;7.40;;
20036;SDS011;10179;42.640;23.312;2023-03-03T06:59:05;16.73;;;7.25;;
20036;SDS011;10179;42.640;23.312;2023-03-03T07:01:36;14.43;;;7.30;;
20036;SDS011;10179;42.640;23.312;2023-03-03T07:06:50;15.82;;;7.60;;
20036;SDS011;10179;42.640;23.312;2023-03-03T07:12:08;15.45;;;7.80;;
20036;SDS011;10179;42.640;23.312;2023-03-03T07:14:36;13.95;;;8.50;;
20036;SDS011;10179;42.640;23.312;2023-03-03T07:17:09;15.70;;;7.88;;
20036;SDS011;10179;42.640;23.312;2023-03-03T07:19:39;28.38;;;11.68;;
20036;SDS011;10179;42.640;23.312;2023-03-03T07:22:11;19.25;;;8.95;;
20036;SDS011;10179;42.640;23.312;2023-03-03T07:24:40;13.30;;;6.95;;
20036;SDS011;10179;42.640;23.312;2023-03-03T07:29:53;12.73;;;7.40;;
20036;SDS011;10179;42.640;23.312;2023-03-03T07:32:36;12.95;;;7.20;;
20036;SDS011;10179;42.640;23.312;2023-03-03T07:35:31;19.58;;;8.15;;
20036;SDS011;10179;42.640;23.312;2023-03-03T07:40:49;13.30;;;7.78;;
20036;SDS011;10179;42.640;23.312;2023-03-03T07:43:36;14.80;;;8.10;;
20036;SDS011;10179;42.640;23.312;2023-03-03T07:48:36;12.63;;;7.63;;
20036;SDS011;10179;42.640;23.312;2023-03-03T07:51:17;15.00;;;7.28;;
20036;SDS011;10179;42.640;23.312;2023-03-03T07:53:46;12.80;;;7.68;;
20036;SDS011;10179;42.640;23.312;2023-03-03T07:56:26;13.05;;;7.30;;
20036;SDS011;10179;42.640;23.312;2023-03-03T07:58:54;17.27;;;9.25;;
20036;SDS011;10179;42.640;23.312;2023-03-03T08:06:59;13.52;;;7.47;;
20036;SDS011;10179;42.640;23.312;2023-03-03T08:12:02;12.93;;;7.32;;
20036;SDS011;10179;42.640;23.312;2023-03-03T08:14:30;11.68;;;6.63;;
20036;SDS011;10179;42.640;23.312;2023-03-03T08:16:58;11.23;;;6.93;;
20036;SDS011;10179;42.640;23.312;2023-03-03T08:19:25;9.43;;;6.05;;
20036;SDS011;10179;42.640;23.312;2023-03-03T08:21:51;11.85;;;6.85;;
20036;SDS011;10179;42.640;23.312;2023-03-03T08:24:24;11.80;;;6.43;;
20036;SDS011;10179;42.640;23.312;2023-03-03T08:26:50;12.02;;;7.20;;
20036;SDS011;10179;42.640;23.312;2023-03-03T08:29:15;12.48;;;6.72;;
20036;SDS011;10179;42.640;23.312;2023-03-03T08:31:41;10.35;;;6.75;;
20036;SDS011;10179;42.640;23.312;2023-03-03T08:34:06;11.57;;;6.68;;
20036;SDS011;10179;42.640;23.312;2023-03-03T08:36:32;10.10;;;5.95;;
20036;SDS011;10179;42.640;23.312;2023-03-03T08:38:57;14.43;;;8.05;;
20036;SDS011;10179;42.640;23.312;2023-03-03T08:41:22;10.95;;;6.45;;
20036;SDS011;10179;42.640;23.312;2023-03-03T08:43:48;10.70;;;6.82;;
20036;SDS011;10179;42.640;23.312;2023-03-03T08:46:13;12.80;;;6.40;;
20036;SDS011;10179;42.640;23.312;2023-03-03T08:48:39;10.57;;;6.65;;
20036;SDS011;10179;42.640;23.312;2023-03-03T08:51:04;11.32;;;6.75;;
20036;SDS011;10179;42.640;23.312;2023-03-03T08:53:30;13.10;;;7.07;;
20036;SDS011;10179;42.640;23.312;2023-03-03T08:55:58;9.75;;;6.13;;
20036;SDS011;10179;42.640;23.312;2023-03-03T08:58:23;15.35;;;6.07;;
20036;SDS011;10179;42.640;23.312;2023-03-03T09:00:49;10.15;;;6.13;;
20036;SDS011;10179;42.640;23.312;2023-03-03T09:03:14;10.68;;;6.35;;
20036;SDS011;10179;42.640;23.312;2023-03-03T09:05:39;12.23;;;6.38;;
20036;SDS011;10179;42.640;23.312;2023-03-03T09:08:06;7.80;;;5.60;;
20036;SDS011;10179;42.640;23.312;2023-03-03T09:10:32;10.68;;;5.75;;
20036;SDS011;10179;42.640;23.312;2023-03-03T09:13:01;10.48;;;5.95;;
20036;SDS011;10179;42.640;23.312;2023-03-03T09:15:35;14.03;;;7.97;;
20036;SDS011;10179;42.640;23.312;2023-03-03T09:18:21;16.42;;;7.90;;
20036;SDS011;10179;42.640;23.312;2023-03-03T09:20:55;12.13;;;7.22;;
20036;SDS011;10179;42.640;23.312;2023-03-03T09:23:52;10.73;;;7.15;;
20036;SDS011;10179;42.640;23.312;2023-03-03T09:26:24;13.55;;;7.78;;
20036;SDS011;10179;42.640;23.312;2023-03-03T09:29:39;12.10;;;7.40;;
20036;SDS011;10179;42.640;23.312;2023-03-03T09:31:52;12.05;;;7.75;;
20036;SDS011;10179;42.640;23.312;2023-03-03T09:34:19;16.25;;;9.20;;
20036;SDS011;10179;42.640;23.312;2023-03-03T09:39:39;16.48;;;9.05;;
20036;SDS011;10179;42.640;23.312;2023-03-03T09:42:23;13.50;;;7.60;;
20036;SDS011;10179;42.640;23.312;2023-03-03T09:45:25;12.85;;;8.23;;
20036;SDS011;10179;42.640;23.312;2023-03-03T09:51:09;13.40;;;8.40;;
20036;SDS011;10179;42.640;23.312;2023-03-03T09:54:02;16.75;;;8.05;;
20036;SDS011;10179;42.640;23.312;2023-03-03T09:56:39;13.88;;;8.20;;
20036;SDS011;10179;42.640;23.312;2023-03-03T09:59:18;15.18;;;8.73;;
20036;SDS011;10179;42.640;23.312;2023-03-03T10:04:54;16.35;;;8.35;;
20036;SDS011;10179;42.640;23.312;2023-03-03T10:10:18;14.02;;;9.00;;
20036;SDS011;10179;42.640;23.312;2023-03-03T10:17:51;15.05;;;8.95;;
20036;SDS011;10179;42.640;23.312;2023-03-03T10:52:48;14.50;;;8.63;;
20036;SDS011;10179;42.640;23.312;2023-03-03T10:58:23;17.25;;;9.20;;
20036;SDS011;10179;42.640;23.312;2023-03-03T11:07:02;17.08;;;10.05;;
20036;SDS011;10179;42.640;23.312;2023-03-03T11:09:45;25.67;;;14.23;;
20036;SDS011;10179;42.640;23.312;2023-03-03T11:17:15;25.00;;;12.88;;
20036;SDS011;10179;42.640;23.312;2023-03-03T11:27:57;28.13;;;15.50;;
20036;SDS011;10179;42.640;23.312;2023-03-03T11:33:54;28.95;;;13.32;;
20036;SDS011;10179;42.640;23.312;2023-03-03T11:36:22;20.58;;;12.27;;
20036;SDS011;10179;42.640;23.312;2023-03-03T11:39:01;22.85;;;13.05;;
20036;SDS011;10179;42.640;23.312;2023-03-03T11:41:40;22.92;;;13.23;;
20036;SDS011;10179;42.640;23.312;2023-03-03T11:47:01;34.67;;;14.73;;
20036;SDS011;10179;42.640;23.312;2023-03-03T11:54:44;23.10;;;13.90;;
20036;SDS011;10179;42.640;23.312;2023-03-03T12:02:44;29.67;;;16.02;;
20036;SDS011;10179;42.640;23.312;2023-03-03T12:10:47;39.85;;;18.33;;
20036;SDS011;10179;42.640;23.312;2023-03-03T12:16:03;29.95;;;15.65;;
20036;SDS011;10179;42.640;23.312;2023-03-03T12:18:58;28.60;;;14.63;;
20036;SDS011;10179;42.640;23.312;2023-03-03T12:27:22;30.10;;;16.38;;
20036;SDS011;10179;42.640;23.312;2023-03-03T12:33:01;25.85;;;13.48;;
20036;SDS011;10179;42.640;23.312;2023-03-03T12:36:21;29.83;;;15.18;;
20036;SDS011;10179;42.640;23.312;2023-03-03T12:38:52;25.63;;;15.05;;
20036;SDS011;10179;42.640;23.312;2023-03-03T12:44:13;29.42;;;16.10;;
20036;SDS011;10179;42.640;23.312;2023-03-03T12:47:00;29.33;;;15.30;;
20036;SDS011;10179;42.640;23.312;2023-03-03T12:49:45;28.70;;;16.38;;
20036;SDS011;10179;42.640;23.312;2023-03-03T12:55:27;48.75;;;21.88;;
20036;SDS011;10179;42.640;23.312;2023-03-03T13:00:53;29.95;;;17.40;;
20036;SDS011;10179;42.640;23.312;2023-03-03T13:06:33;31.13;;;16.48;;
20036;SDS011;10179;42.640;23.312;2023-03-03T13:14:24;21.38;;;12.13;;
20036;SDS011;10179;42.640;23.312;2023-03-03T13:19:59;21.20;;;11.75;;
20036;SDS011;10179;42.640;23.312;2023-03-03T13:22:44;21.20;;;12.30;;
20036;SDS011;10179;42.640;23.312;2023-03-03T13:25:20;19.20;;;10.70;;
20036;SDS011;10179;42.640;23.312;2023-03-03T13:27:50;20.38;;;10.82;;
20036;SDS011;10179;42.640;23.312;2023-03-03T13:30:31;14.43;;;9.60;;
20036;SDS011;10179;42.640;23.312;2023-03-03T13:52:04;15.48;;;8.32;;
20036;SDS011;10179;42.640;23.312;2023-03-03T14:03:02;16.27;;;11.00;;
20036;SDS011;10179;42.640;23.312;2023-03-03T14:05:50;19.15;;;11.70;;
20036;SDS011;10179;42.640;23.312;2023-03-03T14:17:09;19.98;;;11.90;;
20036;SDS011;10179;42.640;23.312;2023-03-03T14:19:39;18.45;;;10.55;;
20036;SDS011;10179;42.640;23.312;2023-03-03T14:22:16;15.90;;;10.35;;
20036;SDS011;10179;42.640;23.312;2023-03-03T14:25:10;17.35;;;10.68;;
20036;SDS011;10179;42.640;23.312;2023-03-03T14:27:39;16.75;;;11.30;;
20036;SDS011;10179;42.640;23.312;2023-03-03T14:33:13;17.10;;;10.40;;
20036;SDS011;10179;42.640;23.312;2023-03-03T14:35:35;19.08;;;11.73;;
20036;SDS011;10179;42.640;23.312;2023-03-03T14:38:15;17.50;;;10.88;;
20036;SDS011;10179;42.640;23.312;2023-03-03T14:43:36;17.17;;;11.52;;
20036;SDS011;10179;42.640;23.312;2023-03-03T14:48:58;21.30;;;12.57;;
20036;SDS011;10179;42.640;23.312;2023-03-03T14:53:54;20.27;;;12.70;;
20036;SDS011;10179;42.640;23.312;2023-03-03T14:56:28;19.63;;;12.40;;
20036;SDS011;10179;42.640;23.312;2023-03-03T15:01:45;18.50;;;11.95;;
20036;SDS011;10179;42.640;23.312;2023-03-03T15:17:32;16.40;;;11.02;;
20036;SDS011;10179;42.640;23.312;2023-03-03T15:29:16;21.65;;;12.93;;
20036;SDS011;10179;42.640;23.312;2023-03-03T15:34:57;19.17;;;12.07;;
20036;SDS011;10179;42.640;23.312;2023-03-03T15:37:36;25.58;;;12.68;;
20036;SDS011;10179;42.640;23.312;2023-03-03T15:40:26;19.83;;;12.32;;
20036;SDS011;10179;42.640;23.312;2023-03-03T15:56:32;23.08;;;14.05;;
20036;SDS011;10179;42.640;23.312;2023-03-03T15:59:11;24.92;;;14.50;;
20036;SDS011;10179;42.640;23.312;2023-03-03T16:01:51;21.40;;;13.77;;
20036;SDS011;10179;42.640;23.312;2023-03-03T16:04:24;21.38;;;12.90;;
20036;SDS011;10179;42.640;23.312;2023-03-03T16:10:06;23.27;;;13.32;;
20036;SDS011;10179;42.640;23.312;2023-03-03T16:20:59;21.92;;;13.32;;
20036;SDS011;10179;42.640;23.312;2023-03-03T16:23:45;28.23;;;16.85;;
20036;SDS011;10179;42.640;23.312;2023-03-03T16:35:09;23.85;;;13.18;;
20036;SDS011;10179;42.640;23.312;2023-03-03T16:40:35;28.60;;;16.25;;
20036;SDS011;10179;42.640;23.312;2023-03-03T16:43:21;22.15;;;13.80;;
20036;SDS011;10179;42.640;23.312;2023-03-03T16:45:48;21.30;;;13.52;;
20036;SDS011;10179;42.640;23.312;2023-03-03T16:53:50;23.40;;;13.80;;
20036;SDS011;10179;42.640;23.312;2023-03-03T17:02:24;25.30;;;14.63;;
20036;SDS011;10179;42.640;23.312;2023-03-03T17:07:42;21.67;;;12.45;;
20036;SDS011;10179;42.640;23.312;2023-03-03T17:13:23;21.05;;;12.95;;
20036;SDS011;10179;42.640;23.312;2023-03-03T17:40:45;11.95;;;8.00;;
20036;SDS011;10179;42.640;23.312;2023-03-03T17:43:21;15.07;;;8.52;;
20036;SDS011;10179;42.640;23.312;2023-03-03T17:45:53;16.13;;;9.73;;
20036;SDS011;10179;42.640;23.312;2023-03-03T17:56:27;11.93;;;7.93;;
20036;SDS011;10179;42.640;23.312;2023-03-03T18:21:36;13.80;;;9.32;;
20036;SDS011;10179;42.640;23.312;2023-03-03T18:24:34;14.27;;;8.95;;
20036;SDS011;10179;42.640;23.312;2023-03-03T18:33:06;17.33;;;9.38;;
20036;SDS011;10179;42.640;23.312;2023-03-03T18:37:57;12.90;;;8.63;;
20036;SDS011;10179;42.640;23.312;2023-03-03T18:56:45;14.65;;;9.70;;
20036;SDS011;10179;42.640;23.312;2023-03-03T19:04:35;17.38;;;9.77;;
20036;SDS011;10179;42.640;23.312;2023-03-03T19:07:19;20.52;;;10.88;;
20036;SDS011;10179;42.640;23.312;2023-03-03T19:17:57;15.02;;;8.90;;
20036;SDS011;10179;42.640;23.312;2023-03-03T19:20:26;15.75;;;9.52;;
20036;SDS011;10179;42.640;23.312;2023-03-03T19:23:05;18.00;;;9.80;;
20036;SDS011;10179;42.640;23.312;2023-03-03T19:25:36;15.45;;;9.25;;
20036;SDS011;10179;42.640;23.312;2023-03-03T19:28:15;17.02;;;9.98;;
20036;SDS011;10179;42.640;23.312;2023-03-03T19:33:58;14.38;;;9.48;;
20036;SDS011;10179;42.640;23.312;2023-03-03T19:47:03;18.30;;;11.18;;
20036;SDS011;10179;42.640;23.312;2023-03-03T19:55:14;17.40;;;10.38;;
20036;SDS011;10179;42.640;23.312;2023-03-03T20:08:14;20.17;;;11.60;;
20036;SDS011;10179;42.640;23.312;2023-03-03T20:10:47;25.05;;;12.35;;
20036;SDS011;10179;42.640;23.312;2023-03-03T20:16:07;26.45;;;13.65;;
20036;SDS011;10179;42.640;23.312;2023-03-03T20:30:50;27.30;;;14.85;;
20036;SDS011;10179;42.640;23.312;2023-03-03T20:39:02;24.02;;;13.13;;
20036;SDS011;10179;42.640;23.312;2023-03-03T20:50:14;25.38;;;13.63;;
20036;SDS011;10179;42.640;23.312;2023-03-03T20:55:47;20.27;;;12.02;;
20036;SDS011;10179;42.640;23.312;2023-03-03T20:58:33;22.05;;;11.43;;
20036;SDS011;10179;42.640;23.312;2023-03-03T21:01:11;22.52;;;11.50;;
20036;SDS011;10179;42.640;23.312;2023-03-03T21:03:43;19.42;;;11.13;;
20036;SDS011;10179;42.640;23.312;2023-03-03T21:06:10;19.35;;;10.93;;
20036;SDS011;10179;42.640;23.312;2023-03-03T21:11:20;21.08;;;10.90;;
20036;SDS011;10179;42.640;23.312;2023-03-03T21:13:52;16.40;;;10.25;;
20036;SDS011;10179;42.640;23.312;2023-03-03T21:21:21;15.63;;;9.48;;
20036;SDS011;10179;42.640;23.312;2023-03-03T21:23:46;17.80;;;10.65;;
20036;SDS011;10179;42.640;23.312;2023-03-03T21:26:12;16.38;;;9.40;;
20036;SDS011;10179;42.640;23.312;2023-03-03T21:28:37;17.73;;;9.70;;
20036;SDS011;10179;42.640;23.312;2023-03-03T21:31:07;20.45;;;10.07;;
20036;SDS011;10179;42.640;23.312;2023-03-03T21:36:05;15.13;;;8.70;;
20036;SDS011;10179;42.640;23.312;2023-03-03T21:38:31;12.23;;;7.93;;
20036;SDS011;10179;42.640;23.312;2023-03-03T21:40:58;13.60;;;8.30;;
20036;SDS011;10179;42.640;23.312;2023-03-03T21:43:38;15.15;;;8.25;;
20036;SDS011;10179;42.640;23.312;2023-03-03T21:46:21;13.00;;;8.27;;
20036;SDS011;10179;42.640;23.312;2023-03-03T21:48:49;13.60;;;8.07;;
20036;SDS011;10179;42.640;23.312;2023-03-03T21:51:15;12.63;;;8.35;;
20036;SDS011;10179;42.640;23.312;2023-03-03T21:53:41;13.07;;;8.35;;
20036;SDS011;10179;42.640;23.312;2023-03-03T21:56:08;13.82;;;8.80;;
20036;SDS011;10179;42.640;23.312;2023-03-03T21:58:34;17.08;;;8.63;;
20036;SDS011;10179;42.640;23.312;2023-03-03T22:01:02;17.48;;;9.02;;
20036;SDS011;10179;42.640;23.312;2023-03-03T22:03:28;15.93;;;9.40;;
20036;SDS011;10179;42.640;23.312;2023-03-03T22:05:54;14.98;;;8.48;;
20036;SDS011;10179;42.640;23.312;2023-03-03T22:08:20;15.30;;;9.43;;
20036;SDS011;10179;42.640;23.312;2023-03-03T22:10:50;15.02;;;9.25;;
20036;SDS011;10179;42.640;23.312;2023-03-03T22:13:20;14.23;;;8.65;;
20036;SDS011;10179;42.640;23.312;2023-03-03T22:15:49;17.10;;;9.77;;